メインページ
METAR-TAF:

METAR-TAF

空港 :

エカテリンブルク, ロシア

コルツォヴォ国際空港

緯度: 56-50N, 経度: 060-38E, 海抜: 237m

現時点の気象観測

当レポートは44分前の14:00(UTC)に作成
西/北西の風 8kt
気温 22°C
湿度 57%
気圧 1008 hPa
視程10km以上
高度4400ftの雲は散在している

METAR: USSS 271400Z 30004MPS 9999 SCT044 22/13 Q1008 R26R/010060 NOSIG RMK QFE735/0980

時間: 19:44 (14:44 UTC)

予報

当レポートは52分前の13:52(UTC)に作成
予報は27日の 15時(UTC)から 28日の 15時(UTC)まで有効
西/北西の風 6kt
視程10km以上
高度3000ftの千切れ雲あり, 積乱雲.
27日の 17時(UTC)から 27日の 18時(UTC)まで徐々に
視程: 3100m
高度1100ftの雲は散在している
高度2000ftの雲は散在している, 積乱雲.
28日の 03時(UTC)から 28日の 04時(UTC)まで徐々に
視程10km以上
高度3000ftの千切れ雲あり

TAF: USSS 271352Z 2715/2815 30003MPS 9999 BKN030CB BECMG 2717/2718 3100 BR SCT011 SCT020CB BECMG 2803/2804 9999 NSW BKN030

4,000以上の空港の気象観測と天気予報(METAR報とTAF報)

利用可能な観測所は地図上に黄色い丸と赤い丸で示す。

丸の上にカーソルを重ねると観測所名を参照できる。

次にクリックすると気象観測と天気予報を参照できる。

マップの切り替え:黒色「×」印の緑ボタンをクリックして拡大、「-」印の緑ボタンをクリックして縮小、緑色の三角印をクリックして隣りの地図に切り替え


METAR-TAF: